createdAt,value
2023-02-12T00:01:29.181Z,-1.18
2023-02-12T00:03:58.246Z,-1.17
2023-02-12T00:06:27.307Z,-1.16
2023-02-12T00:08:56.439Z,-1.15
2023-02-12T00:11:28.191Z,-1.14
2023-02-12T00:13:57.362Z,-1.12
2023-02-12T00:16:27.647Z,-1.10
2023-02-12T00:18:56.858Z,-1.09
2023-02-12T00:21:25.564Z,-1.07
2023-02-12T00:23:54.166Z,-1.06
2023-02-12T00:26:23.143Z,-1.04
2023-02-12T00:28:51.643Z,-1.02
2023-02-12T00:31:22.567Z,-1.01
2023-02-12T00:33:51.063Z,-0.97
2023-02-12T00:36:21.705Z,-0.92
2023-02-12T00:38:51.439Z,-0.89
2023-02-12T00:41:20.420Z,-0.86
2023-02-12T00:43:50.041Z,-0.80
2023-02-12T00:46:18.983Z,-0.78
2023-02-12T00:48:47.533Z,-0.77
2023-02-12T00:51:16.350Z,-0.78
2023-02-12T00:53:45.445Z,-0.79
2023-02-12T00:56:14.646Z,-0.80
2023-02-12T00:58:43.188Z,-0.79
2023-02-12T01:01:11.622Z,-0.80
2023-02-12T01:03:40.478Z,-0.82
2023-02-12T01:06:09.401Z,-0.82
2023-02-12T01:08:40.036Z,-0.84
2023-02-12T01:11:08.405Z,-0.86
2023-02-12T01:13:37.712Z,-0.88
2023-02-12T01:16:20.867Z,-0.90
2023-02-12T01:18:49.300Z,-0.91
2023-02-12T01:21:23.318Z,-0.92
2023-02-12T01:23:51.766Z,-0.92
2023-02-12T01:26:22.056Z,-0.92
2023-02-12T01:28:55.185Z,-0.90
2023-02-12T01:31:25.480Z,-0.90
2023-02-12T01:33:55.223Z,-0.89
2023-02-12T01:36:26.238Z,-0.88
2023-02-12T01:38:56.456Z,-0.86
2023-02-12T01:41:27.824Z,-0.86
2023-02-12T01:44:08.945Z,-0.85
2023-02-12T01:46:37.527Z,-0.84
2023-02-12T01:49:08.877Z,-0.84
2023-02-12T01:51:41.117Z,-0.84
2023-02-12T01:54:11.106Z,-0.83
2023-02-12T01:56:39.843Z,-0.83
2023-02-12T01:59:08.426Z,-0.82
2023-02-12T02:01:36.863Z,-0.83
2023-02-12T02:04:10.573Z,-0.82
2023-02-12T02:06:44.323Z,-0.81
2023-02-12T02:09:12.619Z,-0.79
2023-02-12T02:11:59.713Z,-0.79
2023-02-12T02:14:34.141Z,-0.80
2023-02-12T02:17:14.368Z,-0.81
2023-02-12T02:19:48.703Z,-0.82
2023-02-12T02:22:52.017Z,-0.83
2023-02-12T02:25:36.916Z,-0.84
2023-02-12T02:28:30.178Z,-0.86
2023-02-12T02:31:06.541Z,-0.90
2023-02-12T02:33:43.661Z,-0.90
2023-02-12T02:36:26.004Z,-0.92
2023-02-12T02:39:06.555Z,-0.95
2023-02-12T02:41:44.143Z,-0.97
2023-02-12T02:44:24.278Z,-0.99
2023-02-12T02:46:53.128Z,-1.01
2023-02-12T02:49:29.677Z,-1.03
2023-02-12T02:52:03.831Z,-1.04
2023-02-12T02:54:34.883Z,-1.05
2023-02-12T02:57:11.180Z,-1.05
2023-02-12T02:59:43.566Z,-1.05
2023-02-12T03:02:35.527Z,-1.06
2023-02-12T03:05:05.405Z,-1.06
2023-02-12T03:07:39.490Z,-1.06
2023-02-12T03:10:17.617Z,-1.06
2023-02-12T03:13:02.275Z,-1.08
2023-02-12T03:15:58.826Z,-1.10
2023-02-12T03:18:42.080Z,-1.12
2023-02-12T03:21:14.626Z,-1.13
2023-02-12T03:24:01.118Z,-1.13
2023-02-12T03:27:07.512Z,-1.15
2023-02-12T03:29:36.727Z,-1.14
2023-02-12T03:32:33.912Z,-1.15
2023-02-12T03:35:14.718Z,-1.16
2023-02-12T03:38:08.955Z,-1.16
2023-02-12T03:40:51.220Z,-1.18
2023-02-12T03:43:24.824Z,-1.18
2023-02-12T03:46:05.483Z,-1.20
2023-02-12T03:48:34.900Z,-1.23
2023-02-12T03:51:05.690Z,-1.24
2023-02-12T03:53:34.606Z,-1.25
2023-02-12T03:56:05.779Z,-1.26
2023-02-12T03:58:34.805Z,-1.29
2023-02-12T04:01:03.526Z,-1.30
2023-02-12T04:03:32.320Z,-1.31
2023-02-12T04:06:01.232Z,-1.33
2023-02-12T04:08:30.441Z,-1.34
2023-02-12T04:11:07.997Z,-1.35
2023-02-12T04:13:44.330Z,-1.35
2023-02-12T04:16:54.504Z,-1.36
2023-02-12T04:19:30.614Z,-1.37
2023-02-12T04:22:36.409Z,-1.38
2023-02-12T04:25:08.015Z,-1.39
2023-02-12T04:27:48.344Z,-1.41
2023-02-12T04:30:40.878Z,-1.43
2023-02-12T04:33:10.713Z,-1.44
2023-02-12T04:35:50.059Z,-1.45
2023-02-12T04:38:25.679Z,-1.47
2023-02-12T04:40:54.288Z,-1.48
2023-02-12T04:43:30.152Z,-1.50
2023-02-12T04:45:59.264Z,-1.53
2023-02-12T04:48:27.829Z,-1.55
2023-02-12T04:50:56.501Z,-1.56
2023-02-12T04:53:25.005Z,-1.57
2023-02-12T04:55:53.723Z,-1.57
2023-02-12T04:58:22.594Z,-1.56
2023-02-12T05:00:51.180Z,-1.56
2023-02-12T05:03:19.801Z,-1.55
2023-02-12T05:05:48.724Z,-1.55
2023-02-12T05:08:19.928Z,-1.55
2023-02-12T05:10:48.930Z,-1.53
2023-02-12T05:13:18.774Z,-1.53
2023-02-12T05:15:47.366Z,-1.51
2023-02-12T05:18:15.869Z,-1.50
2023-02-12T05:20:44.839Z,-1.47
2023-02-12T05:23:13.625Z,-1.46
2023-02-12T05:25:42.618Z,-1.45
2023-02-12T05:28:11.103Z,-1.45
2023-02-12T05:30:40.366Z,-1.45
2023-02-12T05:33:08.903Z,-1.45
2023-02-12T05:35:37.971Z,-1.44
2023-02-12T05:38:07.310Z,-1.43
2023-02-12T05:40:36.236Z,-1.44
2023-02-12T05:43:04.749Z,-1.44
2023-02-12T05:45:34.153Z,-1.46
2023-02-12T05:48:03.247Z,-1.50
2023-02-12T05:50:35.015Z,-1.53
2023-02-12T05:53:09.845Z,-1.57
2023-02-12T05:55:38.532Z,-1.61
2023-02-12T05:58:07.344Z,-1.64
2023-02-12T06:00:35.891Z,-1.65
2023-02-12T06:03:04.573Z,-1.65
2023-02-12T06:05:34.805Z,-1.64
2023-02-12T06:08:04.288Z,-1.63
2023-02-12T06:10:33.434Z,-1.62
2023-02-12T06:13:02.826Z,-1.63
2023-02-12T06:15:31.896Z,-1.64
2023-02-12T06:18:00.961Z,-1.64
2023-02-12T06:20:29.788Z,-1.63
2023-02-12T06:22:58.375Z,-1.62
2023-02-12T06:25:27.184Z,-1.62
2023-02-12T06:27:55.994Z,-1.60
2023-02-12T06:30:25.036Z,-1.57
2023-02-12T06:32:54.034Z,-1.56
2023-02-12T06:35:23.150Z,-1.56
2023-02-12T06:37:53.511Z,-1.54
2023-02-12T06:40:22.828Z,-1.51
2023-02-12T06:42:51.149Z,-1.49
2023-02-12T06:45:19.923Z,-1.45
2023-02-12T06:47:48.308Z,-1.42
2023-02-12T06:50:16.970Z,-1.40
2023-02-12T06:52:46.840Z,-1.40
2023-02-12T06:55:15.746Z,-1.39
2023-02-12T06:57:44.235Z,-1.39
2023-02-12T07:00:14.809Z,-1.38
2023-02-12T07:02:43.876Z,-1.34
2023-02-12T07:05:12.588Z,-1.31
2023-02-12T07:07:41.988Z,-1.31
2023-02-12T07:10:11.208Z,-1.32
2023-02-12T07:12:40.829Z,-1.31
2023-02-12T07:15:09.908Z,-1.31
2023-02-12T07:17:38.480Z,-1.32
2023-02-12T07:20:08.191Z,-1.34
2023-02-12T07:22:37.488Z,-1.33
2023-02-12T07:25:06.231Z,-1.31
2023-02-12T07:27:37.758Z,-1.27
2023-02-12T07:30:07.270Z,-1.23
2023-02-12T07:32:36.037Z,-1.20
2023-02-12T07:35:05.169Z,-1.18
2023-02-12T07:37:34.374Z,-1.13
2023-02-12T07:40:02.744Z,-1.06
2023-02-12T07:42:31.536Z,-0.99
2023-02-12T07:45:01.499Z,-0.90
2023-02-12T07:47:30.770Z,-0.84
2023-02-12T07:49:59.279Z,-0.83
2023-02-12T07:52:27.762Z,-0.84
2023-02-12T07:54:57.486Z,-0.86
2023-02-12T07:57:26.983Z,-0.89
2023-02-12T07:59:55.360Z,-0.90
2023-02-12T08:02:26.845Z,-0.92
2023-02-12T08:04:57.069Z,-0.96
2023-02-12T08:07:25.440Z,-0.99
2023-02-12T08:09:54.502Z,-0.99
2023-02-12T08:12:24.157Z,-0.99
2023-02-12T08:14:55.419Z,-0.98
2023-02-12T08:17:24.320Z,-0.98
2023-02-12T08:19:52.624Z,-0.94
2023-02-12T08:22:21.619Z,-0.91
2023-02-12T08:24:50.044Z,-0.88
2023-02-12T08:27:18.614Z,-0.83
2023-02-12T08:29:47.369Z,-0.78
2023-02-12T08:32:17.371Z,-0.73
2023-02-12T08:34:45.777Z,-0.68
2023-02-12T08:37:15.080Z,-0.65
2023-02-12T08:39:44.184Z,-0.61
2023-02-12T08:42:12.748Z,-0.56
2023-02-12T08:44:42.908Z,-0.46
2023-02-12T08:47:11.972Z,-0.37
2023-02-12T08:49:41.422Z,-0.27
2023-02-12T08:52:09.943Z,-0.16
2023-02-12T08:54:40.266Z,-0.04
2023-02-12T08:57:09.566Z,0.10
2023-02-12T08:59:38.558Z,0.24
2023-02-12T09:02:08.968Z,0.41
2023-02-12T09:04:37.987Z,0.56
2023-02-12T09:07:08.336Z,0.68
2023-02-12T09:09:39.067Z,0.83
2023-02-12T09:12:08.484Z,0.94
2023-02-12T09:14:38.649Z,1.06
2023-02-12T09:17:07.176Z,1.18
2023-02-12T09:19:37.170Z,1.29
2023-02-12T09:22:05.852Z,1.36
2023-02-12T09:24:37.717Z,1.42
2023-02-12T09:27:06.943Z,1.52
2023-02-12T09:29:36.728Z,1.63
2023-02-12T09:32:06.837Z,1.68
2023-02-12T09:34:36.985Z,1.75
2023-02-12T09:37:05.387Z,1.77
2023-02-12T09:39:34.390Z,1.83
2023-02-12T09:42:26.181Z,1.89
2023-02-12T09:45:26.765Z,1.86
2023-02-12T09:48:20.935Z,1.84
2023-02-12T09:51:00.891Z,1.87
2023-02-12T09:53:31.124Z,1.97
2023-02-12T09:56:00.349Z,2.17
2023-02-12T09:58:47.877Z,2.38
2023-02-12T10:01:19.049Z,2.48
2023-02-12T10:03:49.832Z,2.46
2023-02-12T10:06:37.542Z,2.38
2023-02-12T10:09:37.063Z,2.28
2023-02-12T10:12:11.422Z,2.13
2023-02-12T10:14:49.964Z,2.01
2023-02-12T10:18:18.140Z,2.17
2023-02-12T10:20:53.568Z,2.81
2023-02-12T10:23:35.802Z,3.45
2023-02-12T10:26:11.733Z,4.02
2023-02-12T10:28:41.385Z,4.22
2023-02-12T10:31:30.575Z,4.04
2023-02-12T10:33:59.492Z,3.61
2023-02-12T10:36:45.400Z,3.06
2023-02-12T10:39:45.837Z,2.44
2023-02-12T10:42:20.178Z,1.96
2023-02-12T10:44:48.815Z,1.67
2023-02-12T10:47:20.187Z,1.49
2023-02-12T10:50:02.706Z,1.44
2023-02-12T10:52:56.984Z,1.49
2023-02-12T10:55:35.889Z,1.63
2023-02-12T10:58:05.622Z,1.76
2023-02-12T11:00:37.920Z,1.84
2023-02-12T11:03:12.712Z,1.90
2023-02-12T11:05:43.203Z,1.92
2023-02-12T11:08:31.006Z,1.91
2023-02-12T11:11:30.868Z,1.88
2023-02-12T11:14:05.725Z,1.75
2023-02-12T11:16:36.934Z,1.55
2023-02-12T11:19:07.430Z,1.39
2023-02-12T11:21:36.674Z,1.24
2023-02-12T11:24:22.277Z,1.13
2023-02-12T11:26:50.860Z,1.05
2023-02-12T11:29:24.652Z,0.92
2023-02-12T11:32:01.907Z,0.82
2023-02-12T11:34:30.932Z,0.75
2023-02-12T11:36:59.713Z,0.68
2023-02-12T11:39:28.923Z,0.60
2023-02-12T11:41:59.755Z,0.50
2023-02-12T11:44:34.805Z,0.38
2023-02-12T11:47:18.676Z,0.32
2023-02-12T11:49:57.451Z,0.30
2023-02-12T11:52:29.601Z,0.28
2023-02-12T11:55:04.409Z,0.29
2023-02-12T11:57:48.011Z,0.30
2023-02-12T12:00:18.254Z,0.31
2023-02-12T12:03:00.911Z,0.32
2023-02-12T12:05:37.054Z,0.36
2023-02-12T12:08:11.091Z,0.35
2023-02-12T12:10:44.484Z,0.34
2023-02-12T12:13:27.210Z,0.33
2023-02-12T12:23:52.921Z,0.57
2023-02-12T12:26:24.877Z,0.51
2023-02-12T12:29:02.555Z,0.45
2023-02-12T12:31:38.742Z,0.44
2023-02-12T12:34:13.788Z,0.44
2023-02-12T12:36:56.566Z,0.47
2023-02-12T12:39:44.423Z,0.46
2023-02-12T12:43:00.924Z,0.39
2023-02-12T12:45:41.797Z,0.30
2023-02-12T12:49:01.545Z,0.23
2023-02-12T12:51:54.149Z,0.19
2023-02-12T12:54:48.784Z,0.18
2023-02-12T12:57:32.036Z,0.19
2023-02-12T13:00:24.335Z,0.17
2023-02-12T13:03:46.495Z,0.11
2023-02-12T13:06:24.425Z,0.02
2023-02-12T13:09:44.284Z,-0.08
2023-02-12T13:12:38.876Z,-0.14
2023-02-12T13:15:29.807Z,-0.20
2023-02-12T13:18:09.836Z,-0.23
2023-02-12T13:20:42.927Z,-0.24
2023-02-12T13:23:26.919Z,-0.27
2023-02-12T13:25:56.077Z,-0.37
2023-02-12T13:28:47.638Z,-0.51
2023-02-12T13:31:34.549Z,-0.64
2023-02-12T13:34:05.547Z,-0.77
2023-02-12T13:36:35.711Z,-0.91
2023-02-12T13:39:04.262Z,-1.00
2023-02-12T13:41:33.139Z,-1.04
2023-02-12T13:44:15.366Z,-1.04
2023-02-12T13:46:57.404Z,-1.04
2023-02-12T13:49:31.156Z,-1.02
2023-02-12T13:52:08.744Z,-1.01
2023-02-12T13:55:05.386Z,-1.00
2023-02-12T13:57:33.863Z,-1.02
2023-02-12T14:00:06.852Z,-1.05
2023-02-12T14:02:37.436Z,-1.09
2023-02-12T14:05:23.881Z,-1.13
2023-02-12T14:07:58.548Z,-1.16
2023-02-12T14:10:33.703Z,-1.22
2023-02-12T14:13:13.355Z,-1.27
2023-02-12T14:15:45.062Z,-1.30
2023-02-12T14:18:34.828Z,-1.33
2023-02-12T14:21:12.467Z,-1.36
2023-02-12T14:23:46.271Z,-1.38
2023-02-12T14:26:23.463Z,-1.40
2023-02-12T14:29:05.100Z,-1.43
2023-02-12T14:31:38.081Z,-1.45
2023-02-12T14:34:06.981Z,-1.49
2023-02-12T14:36:39.455Z,-1.53
2023-02-12T14:39:20.202Z,-1.58
2023-02-12T14:41:55.904Z,-1.62
2023-02-12T14:44:26.103Z,-1.66
2023-02-12T14:46:59.215Z,-1.70
2023-02-12T14:49:28.595Z,-1.76
2023-02-12T14:52:05.170Z,-1.81
2023-02-12T14:54:47.026Z,-1.86
2023-02-12T14:57:21.987Z,-1.92
2023-02-12T14:59:50.712Z,-1.95
2023-02-12T15:02:30.969Z,-1.98
2023-02-12T15:05:15.577Z,-2.02
2023-02-12T15:07:46.782Z,-2.05
2023-02-12T15:10:23.274Z,-2.09
2023-02-12T15:12:57.941Z,-2.12
2023-02-12T15:15:34.816Z,-2.14
2023-02-12T15:18:11.493Z,-2.16
2023-02-12T15:21:06.177Z,-2.17
2023-02-12T15:23:40.294Z,-2.18
2023-02-12T15:26:17.444Z,-2.21
2023-02-12T15:28:47.276Z,-2.23
2023-02-12T15:31:17.213Z,-2.24
2023-02-12T15:33:47.444Z,-2.28
2023-02-12T15:36:20.958Z,-2.30
2023-02-12T15:39:06.405Z,-2.32
2023-02-12T15:41:40.420Z,-2.33
2023-02-12T15:44:19.756Z,-2.34
2023-02-12T15:47:02.254Z,-2.33
2023-02-12T15:49:33.260Z,-2.36
2023-02-12T15:52:27.980Z,-2.37
2023-02-12T15:55:25.264Z,-2.38
2023-02-12T15:57:56.461Z,-2.39
2023-02-12T16:00:42.292Z,-2.41
2023-02-12T16:03:22.543Z,-2.42
2023-02-12T16:05:51.179Z,-2.42
2023-02-12T16:08:22.709Z,-2.43
2023-02-12T16:10:53.351Z,-2.43
2023-02-12T16:13:32.058Z,-2.43
2023-02-12T16:16:14.681Z,-2.44
2023-02-12T16:18:44.462Z,-2.46
2023-02-12T16:21:21.236Z,-2.47
2023-02-12T16:23:51.318Z,-2.48
2023-02-12T16:26:24.650Z,-2.51
2023-02-12T16:28:56.962Z,-2.54
2023-02-12T16:31:27.019Z,-2.57
2023-02-12T16:33:57.903Z,-2.60
2023-02-12T16:36:26.255Z,-2.64
2023-02-12T16:38:55.504Z,-2.69
2023-02-12T16:41:34.288Z,-2.73
2023-02-12T16:44:02.985Z,-2.76
2023-02-12T16:46:35.745Z,-2.78
2023-02-12T16:49:04.131Z,-2.80
2023-02-12T16:51:34.274Z,-2.82
2023-02-12T16:54:04.185Z,-2.83
2023-02-12T16:56:35.020Z,-2.84
2023-02-12T16:59:05.139Z,-2.85
2023-02-12T17:01:35.247Z,-2.85
2023-02-12T17:04:08.067Z,-2.86
2023-02-12T17:06:36.291Z,-2.84
2023-02-12T17:09:04.994Z,-2.84
2023-02-12T17:11:33.674Z,-2.83
2023-02-12T17:14:02.465Z,-2.84
2023-02-12T17:16:32.437Z,-2.84
2023-02-12T17:19:06.997Z,-2.84
2023-02-12T17:21:39.437Z,-2.84
2023-02-12T17:24:18.703Z,-2.86
2023-02-12T17:26:47.633Z,-2.85
2023-02-12T17:29:17.564Z,-2.85
2023-02-12T17:31:49.034Z,-2.86
2023-02-12T17:34:17.548Z,-2.88
2023-02-12T17:36:47.303Z,-2.90
2023-02-12T17:39:16.494Z,-2.91
2023-02-12T17:41:45.061Z,-2.91
2023-02-12T17:44:15.272Z,-2.91
2023-02-12T17:46:43.948Z,-2.92
2023-02-12T17:49:12.631Z,-2.92
2023-02-12T17:51:41.801Z,-2.91
2023-02-12T17:54:10.523Z,-2.91
2023-02-12T17:56:39.112Z,-2.92
2023-02-12T17:59:07.788Z,-2.93
2023-02-12T18:01:37.064Z,-2.94
2023-02-12T18:04:08.228Z,-2.95
2023-02-12T18:06:37.555Z,-2.95
2023-02-12T18:09:06.435Z,-2.96
2023-02-12T18:11:38.040Z,-2.97
2023-02-12T18:14:06.659Z,-2.97
2023-02-12T18:16:36.509Z,-2.98
2023-02-12T18:19:06.078Z,-2.99
2023-02-12T18:21:35.258Z,-2.98
2023-02-12T18:24:04.475Z,-2.98
2023-02-12T18:26:33.125Z,-2.97
2023-02-12T18:29:01.743Z,-2.97
2023-02-12T18:31:30.491Z,-2.96
2023-02-12T18:33:59.434Z,-2.97
2023-02-12T18:36:28.221Z,-2.99
2023-02-12T18:38:57.000Z,-3.01
2023-02-12T18:41:27.024Z,-3.02
2023-02-12T18:43:56.833Z,-3.03
2023-02-12T18:46:28.002Z,-3.03
2023-02-12T18:48:57.139Z,-3.04
2023-02-12T18:51:27.556Z,-3.02
2023-02-12T18:54:01.750Z,-3.03
2023-02-12T18:56:33.145Z,-3.04
2023-02-12T18:59:04.952Z,-3.05
2023-02-12T19:01:34.342Z,-3.06
2023-02-12T19:04:04.691Z,-3.07
2023-02-12T19:06:37.847Z,-3.08
2023-02-12T19:09:11.892Z,-3.09
2023-02-12T19:11:41.151Z,-3.09
2023-02-12T19:14:09.628Z,-3.10
2023-02-12T19:16:42.425Z,-3.10
2023-02-12T19:19:10.895Z,-3.10
2023-02-12T19:21:39.787Z,-3.11
2023-02-12T19:24:10.518Z,-3.12
2023-02-12T19:26:44.555Z,-3.12
2023-02-12T19:29:13.438Z,-3.12
2023-02-12T19:31:44.659Z,-3.13
2023-02-12T19:34:20.457Z,-3.12
2023-02-12T19:36:49.594Z,-3.13
2023-02-12T19:39:20.241Z,-3.14
2023-02-12T19:41:49.245Z,-3.16
2023-02-12T19:44:22.192Z,-3.16
2023-02-12T19:46:50.737Z,-3.17
2023-02-12T19:49:22.172Z,-3.17
2023-02-12T19:51:50.862Z,-3.18
2023-02-12T19:54:20.350Z,-3.20
2023-02-12T19:56:49.049Z,-3.20
2023-02-12T19:59:20.084Z,-3.22
2023-02-12T20:01:48.769Z,-3.23
2023-02-12T20:04:20.503Z,-3.23
2023-02-12T20:06:51.365Z,-3.22
2023-02-12T20:09:21.094Z,-3.24
2023-02-12T20:11:50.559Z,-3.24
2023-02-12T20:14:21.126Z,-3.24
2023-02-12T20:16:50.832Z,-3.26
2023-02-12T20:19:28.330Z,-3.26
2023-02-12T20:21:58.238Z,-3.28
2023-02-12T20:24:28.083Z,-3.30
2023-02-12T20:26:57.391Z,-3.30
2023-02-12T20:29:25.831Z,-3.31
2023-02-12T20:31:54.613Z,-3.31
2023-02-12T20:34:23.864Z,-3.32
2023-02-12T20:36:54.359Z,-3.33
2023-02-12T20:39:23.337Z,-3.35
2023-02-12T20:41:51.809Z,-3.36
2023-02-12T20:44:21.770Z,-3.37
2023-02-12T20:46:56.341Z,-3.39
2023-02-12T20:49:26.257Z,-3.39
2023-02-12T20:51:54.956Z,-3.39
2023-02-12T20:54:26.118Z,-3.41
2023-02-12T20:56:54.508Z,-3.43
2023-02-12T20:59:23.290Z,-3.44
2023-02-12T21:01:52.978Z,-3.46
2023-02-12T21:04:21.360Z,-3.46
2023-02-12T21:06:50.097Z,-3.48
2023-02-12T21:09:20.046Z,-3.48
2023-02-12T21:11:50.036Z,-3.49
2023-02-12T21:14:23.175Z,-3.51
2023-02-12T21:16:53.933Z,-3.52
2023-02-12T21:19:23.322Z,-3.54
2023-02-12T21:21:51.793Z,-3.57
2023-02-12T21:24:25.182Z,-3.59
2023-02-12T21:26:55.036Z,-3.60
2023-02-12T21:29:27.650Z,-3.62
2023-02-12T21:31:56.834Z,-3.63
2023-02-12T21:34:25.391Z,-3.65
2023-02-12T21:36:55.570Z,-3.68
2023-02-12T21:39:27.452Z,-3.69
2023-02-12T21:42:02.554Z,-3.69
2023-02-12T21:44:35.338Z,-3.70
2023-02-12T21:47:05.597Z,-3.71
2023-02-12T21:49:34.037Z,-3.72
2023-02-12T21:52:06.779Z,-3.73
2023-02-12T21:54:35.842Z,-3.73
2023-02-12T21:57:04.631Z,-3.73
2023-02-12T21:59:33.489Z,-3.74
2023-02-12T22:02:02.352Z,-3.76
2023-02-12T22:04:34.190Z,-3.78
2023-02-12T22:07:03.690Z,-3.81
2023-02-12T22:09:35.561Z,-3.82
2023-02-12T22:12:05.389Z,-3.85
2023-02-12T22:14:34.594Z,-3.87
2023-02-12T22:17:04.618Z,-3.92
2023-02-12T22:19:33.325Z,-3.97
2023-02-12T22:22:03.793Z,-4.04
2023-02-12T22:24:32.785Z,-4.12
2023-02-12T22:27:01.265Z,-4.22
2023-02-12T22:29:29.950Z,-4.30
2023-02-12T22:31:58.791Z,-4.36
2023-02-12T22:34:27.629Z,-4.40
2023-02-12T22:36:56.643Z,-4.46
2023-02-12T22:39:27.214Z,-4.52
2023-02-12T22:41:56.754Z,-4.59
2023-02-12T22:44:25.649Z,-4.69
2023-02-12T22:46:54.334Z,-4.77
2023-02-12T22:49:23.324Z,-4.85
2023-02-12T22:51:51.623Z,-4.93
2023-02-12T22:54:20.491Z,-4.99
2023-02-12T22:56:51.918Z,-5.03
2023-02-12T22:59:20.421Z,-5.08
2023-02-12T23:01:50.359Z,-5.14
2023-02-12T23:04:19.317Z,-5.18
2023-02-12T23:06:47.908Z,-5.22
2023-02-12T23:09:19.357Z,-5.27
2023-02-12T23:11:48.283Z,-5.31
2023-02-12T23:14:17.794Z,-5.33
2023-02-12T23:16:47.006Z,-5.34
2023-02-12T23:19:15.656Z,-5.31
2023-02-12T23:21:45.176Z,-5.26
2023-02-12T23:24:15.020Z,-5.20
2023-02-12T23:26:44.861Z,-5.13
2023-02-12T23:29:13.444Z,-5.07
2023-02-12T23:31:42.296Z,-5.01
2023-02-12T23:34:11.195Z,-4.96
2023-02-12T23:36:40.060Z,-4.91
2023-02-12T23:39:11.177Z,-4.85
2023-02-12T23:41:39.593Z,-4.80
2023-02-12T23:44:09.730Z,-4.75
2023-02-12T23:46:38.173Z,-4.70
2023-02-12T23:49:07.016Z,-4.67
2023-02-12T23:51:35.881Z,-4.64
2023-02-12T23:54:04.819Z,-4.62
2023-02-12T23:56:34.027Z,-4.60
2023-02-12T23:59:04.076Z,-4.59
